Time;durP1;ratioP1;P1;durP2;ratioP2;P2;SDS_P1;SDS_P2;PMS_P1;PMS_P2;Temp;Humidity;BMP_temperature;BMP_pressure;BME280_temperature;BME280_humidity;BME280_pressure;Samples;Min_cycle;Max_cycle;Signal;HPM_P1;HPM_P2
2023/06/03 00:02:12;;;;;;;4.88;3.47;;;;;;;12.82;80.53;102258.72;6248895;22;20013;-79
2023/06/03 00:04:42;;;;;;;4.57;3.78;;;;;;;12.78;80.77;102265.34;6248645;22;20013;-79
2023/06/03 00:07:10;;;;;;;4.22;3.42;;;;;;;12.76;81.20;102262.34;6248601;22;20044;-80
2023/06/03 00:09:36;;;;;;;6.93;4.00;;;;;;;12.72;80.73;102267.00;6249118;22;20090;-80
2023/06/03 00:12:03;;;;;;;4.20;3.70;;;;;;;12.66;81.00;102264.06;6246786;22;20021;-79
2023/06/03 00:14:30;;;;;;;7.00;3.67;;;;;;;12.66;80.68;102264.06;6248335;22;20024;-79
2023/06/03 00:16:58;;;;;;;5.68;3.67;;;;;;;12.63;80.64;102268.34;6247144;22;20044;-79
2023/06/03 00:19:25;;;;;;;6.55;3.45;;;;;;;12.61;80.52;102267.25;6248874;22;20474;-79
2023/06/03 00:21:54;;;;;;;5.13;4.00;;;;;;;12.58;80.45;102274.16;6248498;22;20096;-80
2023/06/03 00:24:22;;;;;;;6.75;3.83;;;;;;;12.55;80.53;102268.91;6248466;22;20012;-80
2023/06/03 00:26:50;;;;;;;4.03;3.72;;;;;;;12.51;80.14;102268.97;6246819;22;20430;-79
2023/06/03 00:29:18;;;;;;;12.50;4.28;;;;;;;12.49;80.28;102271.31;6246515;22;20017;-79
2023/06/03 00:31:45;;;;;;;4.70;3.97;;;;;;;12.47;80.17;102278.22;6221244;22;20067;-80
2023/06/03 00:34:12;;;;;;;4.85;4.22;;;;;;;12.44;80.36;102271.81;6246648;22;20016;-79
2023/06/03 00:36:40;;;;;;;4.57;4.15;;;;;;;12.41;80.31;102269.97;6248764;22;20079;-79
2023/06/03 00:39:07;;;;;;;5.38;4.00;;;;;;;12.37;80.54;102266.63;6246701;22;20021;-79
2023/06/03 00:41:34;;;;;;;6.50;4.32;;;;;;;12.34;80.70;102264.78;6247117;22;20100;-79
2023/06/03 00:44:01;;;;;;;9.80;4.32;;;;;;;12.32;79.96;102267.13;6245982;22;20025;-79
2023/06/03 00:46:29;;;;;;;8.60;4.65;;;;;;;12.31;80.08;102265.63;6221376;22;20021;-79
2023/06/03 00:48:56;;;;;;;4.93;4.30;;;;;;;12.29;79.85;102260.69;6246789;22;20043;-79
2023/06/03 00:51:22;;;;;;;5.65;4.32;;;;;;;12.25;80.26;102259.25;6248644;22;20104;-79
2023/06/03 00:53:49;;;;;;;7.40;4.28;;;;;;;12.22;80.30;102266.19;6246541;22;20048;-79
2023/06/03 00:56:17;;;;;;;8.95;4.30;;;;;;;12.18;80.08;102254.06;6248293;22;20046;-80
2023/06/03 00:58:43;;;;;;;9.13;4.45;;;;;;;12.15;80.14;102252.97;6220544;22;20025;-79
2023/06/03 01:01:12;;;;;;;12.25;4.32;;;;;;;12.11;80.37;102260.31;6221692;22;20021;-79
2023/06/03 01:03:42;;;;;;;6.13;4.90;;;;;;;12.10;80.04;102263.38;6221232;22;20041;-79
2023/06/03 01:06:21;;;;;;;6.50;4.22;;;;;;;12.07;79.87;102261.53;6248470;22;20067;-79
2023/06/03 01:09:02;;;;;;;6.30;4.53;;;;;;;12.03;79.58;102258.94;6246742;22;20012;-79
2023/06/03 01:12:11;;;;;;;8.33;4.73;;;;;;;12.05;79.13;102255.84;6246083;22;20024;-79
2023/06/03 01:14:48;;;;;;;7.85;4.88;;;;;;;11.99;79.47;102263.63;6215218;22;20021;-79
2023/06/03 01:17:16;;;;;;;5.30;4.80;;;;;;;11.96;79.92;102259.84;6248554;22;20052;-79
2023/06/03 01:19:51;;;;;;;7.22;4.32;;;;;;;11.92;79.71;102259.16;6246497;22;20063;-79
2023/06/03 01:22:20;;;;;;;11.80;4.55;;;;;;;11.89;80.25;102256.56;6246613;22;20461;-79
2023/06/03 01:24:50;;;;;;;5.32;4.15;;;;;;;11.85;79.86;102261.97;6248076;22;20027;-80
2023/06/03 01:27:18;;;;;;;5.90;4.50;;;;;;;11.82;79.77;102256.72;6247751;22;20017;-79
2023/06/03 01:29:45;;;;;;;4.88;4.40;;;;;;;11.79;80.00;102257.53;6221031;22;20020;-79
2023/06/03 01:32:15;;;;;;;5.22;4.72;;;;;;;11.76;80.01;102263.66;6248124;22;20067;-79
2023/06/03 01:34:43;;;;;;;5.05;4.63;;;;;;;11.72;80.23;102266.38;6248031;22;20043;-79
2023/06/03 01:37:10;;;;;;;5.30;4.80;;;;;;;11.65;80.24;102267.25;6220994;22;20021;-79
2023/06/03 01:39:41;;;;;;;5.75;5.15;;;;;;;11.63;80.30;102261.59;6246645;22;20017;-78
2023/06/03 01:42:10;;;;;;;5.33;4.87;;;;;;;11.63;79.62;102264.25;6247562;22;20036;-79
2023/06/03 01:44:38;;;;;;;8.00;4.70;;;;;;;11.60;80.22;102259.72;6246211;22;20238;-79
2023/06/03 01:47:05;;;;;;;10.48;4.43;;;;;;;11.57;79.45;102260.56;6246223;22;20029;-79
2023/06/03 01:49:32;;;;;;;5.95;4.97;;;;;;;11.55;79.71;102270.91;6221408;22;20083;-79
2023/06/03 01:51:59;;;;;;;9.80;4.90;;;;;;;11.51;79.98;102272.13;6220704;22;20024;-78
2023/06/03 01:54:28;;;;;;;5.68;4.80;;;;;;;11.47;79.88;102274.84;6245963;22;20414;-79
2023/06/03 01:56:56;;;;;;;4.93;4.45;;;;;;;11.44;80.09;102280.25;6247363;22;20031;-79
2023/06/03 01:59:24;;;;;;;6.07;4.75;;;;;;;11.39;80.42;102278.78;6245754;22;20031;-79
2023/06/03 02:01:55;;;;;;;6.03;4.78;;;;;;;11.33;80.59;102281.16;6220473;22;20016;-79
2023/06/03 02:04:23;;;;;;;;;;;;;;;11.31;79.88;102277.41;6221850;22;20052;-79
2023/06/03 02:06:55;;;;;;;10.02;4.28;;;;;;;11.24;80.49;102278.28;6246044;22;19924;-79
2023/06/03 02:09:24;;;;;;;5.47;4.60;;;;;;;11.17;80.50;102275.75;6246188;22;20027;-79
2023/06/03 02:11:52;;;;;;;5.28;4.72;;;;;;;11.14;81.38;102278.47;6245096;22;20024;-79
2023/06/03 02:14:19;;;;;;;4.53;4.13;;;;;;;11.10;81.69;102272.44;6247685;22;20017;-79
2023/06/03 02:16:48;;;;;;;5.10;4.60;;;;;;;11.03;81.77;102274.06;6247571;22;20020;-79
2023/06/03 02:19:19;;;;;;;5.15;4.72;;;;;;;10.99;81.75;102273.34;6245830;22;20012;-79
2023/06/03 02:21:46;;;;;;;5.40;4.32;;;;;;;10.95;81.72;102269.25;6245847;22;20052;-79
2023/06/03 02:24:14;;;;;;;6.65;4.57;;;;;;;10.90;81.72;102264.38;6248985;22;20016;-79
2023/06/03 02:26:52;;;;;;;4.43;4.03;;;;;;;10.86;81.83;102264.41;6248763;22;20103;-79
2023/06/03 02:29:22;;;;;;;5.53;4.63;;;;;;;10.84;82.16;102260.66;6247623;22;20434;-79
2023/06/03 02:31:50;;;;;;;5.30;4.15;;;;;;;10.79;82.51;102264.56;6248984;22;20016;-79
2023/06/03 02:34:19;;;;;;;4.90;4.50;;;;;;;10.72;82.19;102261.22;6247074;22;20016;-79
2023/06/03 02:36:46;;;;;;;5.28;4.22;;;;;;;10.69;82.29;102265.44;6247182;22;20481;-78
2023/06/03 02:39:14;;;;;;;4.90;4.38;;;;;;;10.65;82.39;102265.50;6246869;22;20092;-79
2023/06/03 02:41:42;;;;;;;7.70;4.53;;;;;;;10.61;82.57;102259.47;6249069;22;20043;-79
2023/06/03 02:44:13;;;;;;;5.00;4.32;;;;;;;10.59;83.17;102258.38;6247261;22;20091;-80
2023/06/03 02:46:39;;;;;;;5.55;4.35;;;;;;;10.53;83.55;102260.72;6221751;22;20020;-79
2023/06/03 02:49:08;;;;;;;8.30;4.22;;;;;;;10.47;83.66;102266.91;6247292;22;20013;-79
2023/06/03 02:51:40;;;;;;;4.47;4.07;;;;;;;10.43;83.64;102260.88;6247582;22;20099;-79
2023/06/03 02:54:07;;;;;;;7.63;4.82;;;;;;;10.40;83.96;102259.03;6248585;22;20036;-79
2023/06/03 02:56:34;;;;;;;7.25;4.30;;;;;;;10.34;84.06;102256.81;6247490;22;20029;-78
2023/06/03 02:59:00;;;;;;;6.68;4.20;;;;;;;10.30;84.45;102256.09;6247009;22;20370;-79
2023/06/03 03:01:28;;;;;;;4.30;4.00;;;;;;;10.27;83.95;102264.88;6247028;22;20453;-78
2023/06/03 03:03:54;;;;;;;5.43;4.60;;;;;;;10.23;84.19;102258.09;6247204;22;20024;-78
2023/06/03 03:06:24;;;;;;;7.95;4.63;;;;;;;10.20;84.23;102261.56;6246934;22;20029;-78
2023/06/03 03:08:52;;;;;;;7.22;4.47;;;;;;;10.15;84.22;102260.06;6246252;22;20497;-78
2023/06/03 03:11:27;;;;;;;5.07;4.60;;;;;;;10.12;84.45;102260.09;6248890;22;20023;-79
2023/06/03 03:13:55;;;;;;;7.10;4.57;;;;;;;10.06;83.57;102272.34;6247008;22;20020;-78
2023/06/03 03:16:24;;;;;;;4.82;4.43;;;;;;;10.02;84.64;102273.13;6246839;22;20025;-78
2023/06/03 03:18:51;;;;;;;7.30;4.38;;;;;;;9.99;84.06;102271.28;6246934;22;20016;-78
2023/06/03 03:21:18;;;;;;;5.75;4.78;;;;;;;9.98;84.50;102277.00;6246883;22;20079;-78
2023/06/03 03:23:45;;;;;;;5.45;4.43;;;;;;;9.95;85.15;102272.47;6248207;22;20012;-78
2023/06/03 03:26:13;;;;;;;3.90;3.60;;;;;;;9.88;84.61;102269.91;6246645;22;20020;-79
2023/06/03 03:28:41;;;;;;;6.32;4.20;;;;;;;9.87;84.62;102273.69;6246905;22;20014;-79
2023/06/03 03:31:09;;;;;;;7.80;3.80;;;;;;;9.87;84.44;102276.38;6248571;22;20012;-78
2023/06/03 03:33:36;;;;;;;4.63;4.22;;;;;;;9.85;84.08;102276.00;6247005;22;20025;-78
2023/06/03 03:36:12;;;;;;;6.28;4.05;;;;;;;9.83;84.20;102275.66;6246586;22;20029;-78
2023/06/03 03:38:39;;;;;;;4.10;3.80;;;;;;;9.82;84.45;102279.47;6246492;22;20017;-78
2023/06/03 03:41:06;;;;;;;6.97;3.97;;;;;;;9.79;84.33;102273.03;6246915;22;20421;-78
2023/06/03 03:43:35;;;;;;;5.13;4.70;;;;;;;9.75;84.52;102274.97;6247413;22;20021;-78
2023/06/03 03:46:09;;;;;;;5.18;4.53;;;;;;;9.74;84.21;102275.34;6247060;22;20017;-78
2023/06/03 03:48:36;;;;;;;5.05;4.30;;;;;;;9.70;85.03;102272.72;6247385;22;20100;-80
2023/06/03 03:51:03;;;;;;;4.63;4.22;;;;;;;9.69;84.85;102271.97;6249008;22;20017;-78
2023/06/03 03:53:36;;;;;;;4.50;4.10;;;;;;;9.68;85.15;102272.38;6222830;22;20043;-77
2023/06/03 03:56:20;;;;;;;6.95;4.65;;;;;;;9.68;85.02;102272.38;6246772;22;20375;-77
2023/06/03 03:58:53;;;;;;;5.70;4.00;;;;;;;9.68;85.17;102270.47;6247018;22;20078;-78
2023/06/03 04:01:23;;;;;;;4.30;3.90;;;;;;;9.66;85.22;102269.34;6246788;22;20020;-77
2023/06/03 04:03:57;;;;;;;8.52;4.10;;;;;;;9.66;85.76;102277.31;6246500;22;20443;-77
2023/06/03 04:06:38;;;;;;;9.15;3.95;;;;;;;9.68;84.96;102280.34;6246215;22;20024;-78
2023/06/03 04:09:07;;;;;;;5.63;4.70;;;;;;;9.68;85.28;102280.34;6247033;22;20048;-77
2023/06/03 04:11:38;;;;;;;7.20;3.85;;;;;;;9.70;85.36;102278.03;6247483;22;20017;-78
2023/06/03 04:14:16;;;;;;;8.93;3.85;;;;;;;9.72;85.47;102277.66;6246848;22;20375;-80
2023/06/03 04:16:47;;;;;;;5.28;4.20;;;;;;;9.74;85.33;102283.34;6248696;22;20462;-79
2023/06/03 04:19:21;;;;;;;4.40;4.05;;;;;;;9.78;85.45;102286.72;6246921;22;20013;-80
2023/06/03 04:21:47;;;;;;;4.35;3.85;;;;;;;9.85;85.73;102282.06;6247964;22;20013;-78
2023/06/03 04:24:16;;;;;;;4.28;3.63;;;;;;;9.90;84.78;102284.31;6248497;22;20425;-80
2023/06/03 04:26:42;;;;;;;6.40;3.75;;;;;;;9.94;85.04;102287.69;6221450;22;20079;-79
2023/06/03 04:29:09;;;;;;;5.15;3.88;;;;;;;9.99;83.83;102281.94;6248772;22;20020;-79
2023/06/03 04:31:36;;;;;;;3.97;3.63;;;;;;;10.04;83.83;102286.78;6249090;22;20083;-79
2023/06/03 04:34:02;;;;;;;5.00;3.80;;;;;;;10.08;83.41;102286.00;6246837;22;20019;-80
2023/06/03 04:36:29;;;;;;;4.00;3.60;;;;;;;10.14;83.41;102287.06;6245938;22;20457;-79
2023/06/03 04:38:58;;;;;;;11.75;4.13;;;;;;;10.39;83.60;102281.47;6246524;22;20391;-80
2023/06/03 04:41:32;;;;;;;4.25;3.30;;;;;;;11.06;81.48;102279.75;6246306;22;20023;-80
2023/06/03 04:44:01;;;;;;;5.25;3.40;;;;;;;11.71;79.03;102288.88;6246856;22;20048;-79
2023/06/03 04:46:31;;;;;;;4.80;3.60;;;;;;;13.34;73.92;102290.72;6245484;22;20098;-79
2023/06/03 04:49:01;;;;;;;5.63;3.13;;;;;;;16.15;62.50;102294.66;6246870;22;20017;-80
2023/06/03 04:51:33;;;;;;;4.93;2.90;;;;;;;18.17;55.98;102283.63;6220839;22;20021;-80
2023/06/03 04:54:04;;;;;;;5.20;2.88;;;;;;;18.52;52.16;102281.22;6246816;22;20043;-80
2023/06/03 04:56:32;;;;;;;5.00;2.83;;;;;;;19.44;48.70;102288.69;6246793;22;20029;-80
2023/06/03 04:59:03;;;;;;;4.13;2.38;;;;;;;20.59;44.81;102288.34;6246507;22;20024;-80
2023/06/03 05:01:36;;;;;;;3.15;2.53;;;;;;;21.49;43.56;102295.53;6247037;22;20040;-80
2023/06/03 05:04:08;;;;;;;3.15;2.63;;;;;;;22.32;40.63;102296.69;6220998;22;20019;-80
2023/06/03 05:06:36;;;;;;;2.97;2.67;;;;;;;22.70;38.90;102301.56;6247165;22;20103;-79
2023/06/03 05:09:03;;;;;;;4.63;2.67;;;;;;;23.13;37.74;102309.66;6248895;22;20236;-79
2023/06/03 05:11:30;;;;;;;2.55;2.40;;;;;;;23.54;37.22;102308.03;6246905;22;20036;-79
2023/06/03 05:13:57;;;;;;;2.55;2.35;;;;;;;23.84;36.31;102307.53;6246704;22;20453;-79
2023/06/03 05:16:24;;;;;;;6.20;2.30;;;;;;;24.10;35.04;102297.13;6246383;22;20181;-79
2023/06/03 05:18:51;;;;;;;4.95;2.40;;;;;;;24.30;34.51;102298.84;6246031;22;20334;-79
2023/06/03 05:21:19;;;;;;;6.07;2.05;;;;;;;24.24;33.78;102304.28;6246517;22;20354;-79
2023/06/03 05:23:46;;;;;;;2.40;2.17;;;;;;;24.67;32.99;102306.66;6247993;22;20017;-79
2023/06/03 05:26:14;;;;;;;2.20;2.00;;;;;;;24.48;32.82;102311.16;6246519;22;20430;-79
2023/06/03 05:28:40;;;;;;;3.65;2.20;;;;;;;24.66;32.83;102315.31;6248156;22;20017;-79
2023/06/03 05:31:10;;;;;;;3.22;2.40;;;;;;;24.72;32.93;102314.06;6246656;22;20020;-79
2023/06/03 05:33:37;;;;;;;6.57;2.20;;;;;;;24.76;33.95;102317.25;6246062;22;20418;-79
2023/06/03 05:36:11;;;;;;;2.70;2.00;;;;;;;24.69;32.51;102317.78;6246420;22;20093;-79
2023/06/03 05:38:38;;;;;;;6.68;2.35;;;;;;;24.22;32.68;102317.63;6246590;22;20016;-79
2023/06/03 05:41:08;;;;;;;2.40;1.98;;;;;;;23.98;32.30;102322.88;6246007;22;20091;-79
2023/06/03 05:43:35;;;;;;;2.53;2.10;;;;;;;24.10;33.64;102324.31;6246534;22;20016;-79
2023/06/03 05:46:02;;;;;;;2.17;2.00;;;;;;;23.81;34.82;102322.13;6246405;22;20020;-78
2023/06/03 05:48:30;;;;;;;7.80;2.33;;;;;;;23.52;34.48;102324.06;6245368;22;20071;-79
2023/06/03 05:50:56;;;;;;;4.80;2.17;;;;;;;23.50;33.69;102329.25;6246552;22;20047;-79
2023/06/03 05:53:26;;;;;;;10.05;2.10;;;;;;;23.09;34.24;102320.00;6246113;22;20021;-79
2023/06/03 05:55:56;;;;;;;1.92;1.83;;;;;;;22.67;34.53;102326.22;6245549;22;20027;-78
2023/06/03 05:58:25;;;;;;;2.55;1.92;;;;;;;22.46;35.53;102329.06;6221326;22;20027;-78
2023/06/03 06:00:53;;;;;;;5.75;2.40;;;;;;;22.10;36.48;102327.09;6247714;22;20020;-78
2023/06/03 06:03:19;;;;;;;4.55;1.80;;;;;;;21.93;37.46;102326.97;6246648;22;20027;-78
2023/06/03 06:05:46;;;;;;;7.57;1.98;;;;;;;21.71;36.39;102319.38;6247326;22;20580;-78
2023/06/03 06:08:13;;;;;;;5.78;2.00;;;;;;;21.53;36.94;102323.16;6222080;22;20016;-78
2023/06/03 06:10:40;;;;;;;2.30;2.10;;;;;;;21.41;37.52;102321.56;6247271;22;20465;-79
2023/06/03 06:13:07;;;;;;;3.15;1.80;;;;;;;21.24;37.23;102328.75;6246994;22;20071;-80
2023/06/03 06:15:35;;;;;;;2.88;1.60;;;;;;;21.04;37.21;102326.03;6249015;22;20044;-80
2023/06/03 06:18:02;;;;;;;2.00;1.85;;;;;;;20.87;37.95;102325.81;6246604;22;20032;-78
2023/06/03 06:20:29;;;;;;;2.88;2.15;;;;;;;20.74;38.27;102323.47;6247946;22;20080;-78
2023/06/03 06:22:56;;;;;;;2.30;2.10;;;;;;;20.79;39.37;102332.88;6247739;22;20020;-79
2023/06/03 06:25:22;;;;;;;2.90;2.15;;;;;;;20.70;37.86;102322.16;6247433;22;20447;-78
2023/06/03 06:27:50;;;;;;;2.90;1.83;;;;;;;20.61;37.80;102323.03;6249288;22;20012;-78
2023/06/03 06:30:19;;;;;;;3.20;1.80;;;;;;;20.46;38.32;102322.31;6247347;22;20447;-79
2023/06/03 06:32:50;;;;;;;2.75;1.70;;;;;;;20.42;38.33;102322.50;6247416;22;20013;-79
2023/06/03 06:35:27;;;;;;;3.90;1.92;;;;;;;20.42;38.51;102327.19;6249508;22;20411;-78
2023/06/03 06:37:57;;;;;;;3.70;2.38;;;;;;;20.37;37.76;102319.72;6248191;22;20017;-79
2023/06/03 06:40:33;;;;;;;6.55;2.28;;;;;;;20.31;37.82;102320.38;6248365;22;20016;-79
2023/06/03 06:43:02;;;;;;;2.65;2.30;;;;;;;20.19;38.29;102318.72;6248541;22;20091;-79
2023/06/03 06:45:35;;;;;;;4.00;2.58;;;;;;;20.25;38.56;102318.81;6247844;22;20528;-78
2023/06/03 06:48:12;;;;;;;4.15;1.77;;;;;;;20.34;38.66;102317.97;6223674;22;20064;-81
2023/06/03 06:50:46;;;;;;;2.78;2.00;;;;;;;20.43;38.36;102318.59;6248798;22;20044;-81
2023/06/03 06:53:15;;;;;;;5.30;2.22;;;;;;;20.38;37.88;102318.53;6248077;22;20521;-82
2023/06/03 06:55:50;;;;;;;5.38;1.90;;;;;;;20.48;37.75;102326.06;6248560;22;20540;-82
2023/06/03 06:58:25;;;;;;;2.30;2.17;;;;;;;20.52;38.72;102323.16;6224193;22;20172;-79
2023/06/03 07:00:52;;;;;;;3.75;2.03;;;;;;;20.60;37.47;102321.53;6250355;22;20024;-79
2023/06/03 07:03:21;;;;;;;3.80;2.10;;;;;;;20.63;37.13;102315.94;6248558;22;20017;-83
2023/06/03 07:05:52;;;;;;;3.25;1.90;;;;;;;20.77;38.04;102316.38;6248977;22;20092;-81
2023/06/03 07:08:22;;;;;;;3.13;1.95;;;;;;;20.86;36.57;102318.91;6248768;22;20020;-80
2023/06/03 07:10:49;;;;;;;2.35;1.70;;;;;;;20.93;37.67;102323.94;6250375;22;20084;-82
2023/06/03 07:13:16;;;;;;;6.22;2.00;;;;;;;21.06;37.51;102323.59;6223347;22;20016;-79
2023/06/03 07:15:43;;;;;;;4.05;2.00;;;;;;;21.08;35.89;102323.88;6223109;22;20087;-82
2023/06/03 07:18:11;;;;;;;4.28;1.92;;;;;;;21.14;36.56;102322.72;6248592;22;20443;-80
2023/06/03 07:20:42;;;;;;;4.55;2.25;;;;;;;21.33;36.12;102319.72;6248636;22;20789;-81
2023/06/03 07:23:19;;;;;;;5.45;1.90;;;;;;;21.40;37.14;102320.06;6248162;22;20080;-78
2023/06/03 07:25:49;;;;;;;4.65;1.83;;;;;;;21.51;35.38;102327.56;6248788;22;20024;-79
2023/06/03 07:28:24;;;;;;;4.88;2.30;;;;;;;21.53;34.93;102312.31;6248384;22;20013;-78
2023/06/03 07:30:52;;;;;;;5.63;2.30;;;;;;;21.60;34.70;102321.97;6248585;22;20025;-79
2023/06/03 07:33:25;;;;;;;3.10;1.80;;;;;;;21.82;34.94;102321.44;6248682;22;20013;-79
2023/06/03 07:36:00;;;;;;;3.40;1.92;;;;;;;21.93;35.47;102322.28;6223857;22;20020;-80
2023/06/03 07:38:37;;;;;;;2.45;2.10;;;;;;;22.08;34.30;102327.56;6248523;22;20082;-78
2023/06/03 07:41:11;;;;;;;9.93;2.90;;;;;;;22.07;33.71;102334.22;6248308;22;20071;-79
2023/06/03 07:43:43;;;;;;;3.90;2.10;;;;;;;22.03;32.37;102330.25;6248281;22;20047;-79
2023/06/03 07:46:10;;;;;;;5.53;2.20;;;;;;;22.18;33.06;102328.16;6250215;22;20028;-78
2023/06/03 07:48:37;;;;;;;4.07;2.05;;;;;;;22.36;33.03;102335.19;6250652;22;20204;-79
2023/06/03 07:51:08;;;;;;;3.90;2.00;;;;;;;22.55;33.25;102325.41;6250732;22;20446;-78
2023/06/03 07:53:36;;;;;;;1.75;1.65;;;;;;;22.76;34.21;102334.19;6250679;22;20079;-78
2023/06/03 07:56:13;;;;;;;5.07;2.10;;;;;;;22.88;33.68;102336.47;6248596;22;20075;-78
2023/06/03 07:58:39;;;;;;;1.90;1.80;;;;;;;22.86;32.09;102333.50;6249176;22;20023;-78
2023/06/03 08:01:06;;;;;;;1.88;1.77;;;;;;;23.00;31.84;102333.78;6223872;22;20464;-79
2023/06/03 08:03:34;;;;;;;2.20;2.00;;;;;;;23.13;32.12;102325.94;6248460;22;20027;-79
2023/06/03 08:06:01;;;;;;;2.20;2.00;;;;;;;23.13;31.09;102334.09;6250392;22;20055;-79
2023/06/03 08:08:33;;;;;;;9.40;2.60;;;;;;;23.31;30.97;102330.19;6248378;22;20044;-79
2023/06/03 08:11:01;;;;;;;5.75;2.08;;;;;;;23.47;32.11;102332.94;6248773;22;20505;-80
2023/06/03 08:13:28;;;;;;;9.60;3.15;;;;;;;23.66;29.48;102335.19;6247571;22;20422;-79
2023/06/03 08:15:55;;;;;;;12.52;2.60;;;;;;;23.67;29.93;102326.56;6248653;22;20378;-81
2023/06/03 08:18:50;;;;;;;1.85;1.75;;;;;;;23.88;29.94;102329.78;6248774;22;20028;-80
2023/06/03 08:21:18;;;;;;;8.15;1.80;;;;;;;23.84;29.13;102326.56;6248319;22;20032;-80
2023/06/03 08:23:44;;;;;;;1.50;1.40;;;;;;;23.76;29.04;102329.03;6250280;22;20431;-82
2023/06/03 08:26:11;;;;;;;1.48;1.40;;;;;;;23.74;28.69;102330.75;6248198;22;20044;-82
2023/06/03 08:28:40;;;;;;;1.48;1.23;;;;;;;23.89;29.64;102321.13;6249808;22;20397;-84
2023/06/03 08:31:07;;;;;;;2.70;1.50;;;;;;;23.92;29.63;102319.41;6248554;22;20020;-83
2023/06/03 08:33:34;;;;;;;4.60;1.65;;;;;;;24.05;28.85;102321.59;6250713;22;20083;-84
2023/06/03 08:36:01;;;;;;;5.32;1.63;;;;;;;24.17;28.68;102320.34;6251177;22;20367;-87
2023/06/03 08:38:28;;;;;;;9.43;1.63;;;;;;;24.39;29.08;102314.16;6250035;22;20020;-81
2023/06/03 08:40:55;;;;;;;2.65;2.03;;;;;;;24.51;28.23;102315.59;6250556;22;20013;-83
2023/06/03 08:43:25;;;;;;;4.95;1.58;;;;;;;24.41;28.00;102312.41;6249799;22;20112;-80
2023/06/03 08:46:20;;;;;;;5.70;1.40;;;;;;;24.61;29.25;102311.38;6250384;22;20070;-82
2023/06/03 08:49:03;;;;;;;5.45;1.50;;;;;;;24.69;27.44;102315.06;6203452;22;20016;-81
2023/06/03 08:51:43;;;;;;;6.68;1.50;;;;;;;24.39;28.21;102317.59;6255871;22;20167;-79
2023/06/03 08:54:14;;;;;;;5.63;1.38;;;;;;;24.29;27.31;102308.25;6223755;22;20416;-87
2023/06/03 08:56:44;;;;;;;7.68;1.90;;;;;;;24.40;28.05;102307.47;6249975;22;20431;-81
2023/06/03 08:59:15;;;;;;;5.25;1.23;;;;;;;24.30;27.49;102309.00;6249300;22;20020;-82
2023/06/03 09:01:42;;;;;;;6.30;1.90;;;;;;;24.29;27.49;102310.22;6250168;22;20081;-81
2023/06/03 09:04:12;;;;;;;2.55;1.55;;;;;;;24.49;28.19;102309.91;6249730;22;20040;-81
2023/06/03 09:06:45;;;;;;;2.10;1.10;;;;;;;24.43;27.27;102306.47;6248679;22;20087;-81
2023/06/03 09:09:12;;;;;;;2.37;1.23;;;;;;;24.22;27.40;102309.47;6249848;22;20064;-81
2023/06/03 09:11:39;;;;;;;1.25;1.15;;;;;;;24.15;27.11;102307.25;6249172;22;20591;-80
2023/06/03 09:14:07;;;;;;;1.50;1.25;;;;;;;24.34;27.18;102307.50;6247763;22;20103;-81
2023/06/03 09:16:34;;;;;;;1.15;1.00;;;;;;;24.21;27.34;102302.53;6248643;22;20498;-81
2023/06/03 09:19:01;;;;;;;4.32;1.48;;;;;;;24.17;26.65;102307.50;6250123;22;20038;-82
2023/06/03 09:21:28;;;;;;;3.08;1.38;;;;;;;24.04;27.24;102309.22;6249670;22;20052;-81
2023/06/03 09:23:55;;;;;;;2.70;1.50;;;;;;;24.00;27.39;102306.75;6250279;22;20020;-81
2023/06/03 09:26:22;;;;;;;18.63;1.67;;;;;;;24.15;27.84;102311.94;6248087;22;20020;-81
2023/06/03 09:28:49;;;;;;;2.85;1.65;;;;;;;24.42;27.33;102316.59;6250036;22;20013;-82
2023/06/03 09:31:15;;;;;;;4.22;1.65;;;;;;;24.36;26.39;102307.00;6249713;22;20021;-81
2023/06/03 09:33:42;;;;;;;8.23;1.63;;;;;;;24.48;26.67;102309.19;6225609;22;20471;-81
2023/06/03 09:36:13;;;;;;;5.65;1.50;;;;;;;24.54;27.10;102315.34;6252786;22;20474;-82
2023/06/03 09:38:51;;;;;;;10.48;1.50;;;;;;;24.63;28.19;102313.59;6252020;22;20021;-81
2023/06/03 09:41:20;;;;;;;10.93;1.77;;;;;;;24.57;26.84;102317.06;6251965;22;20017;-81
2023/06/03 09:44:02;;;;;;;3.17;1.20;;;;;;;24.77;27.82;102315.28;6251577;22;20020;-81
2023/06/03 09:46:33;;;;;;;24.70;2.97;;;;;;;24.97;28.04;102319.66;6251477;22;20024;-82
2023/06/03 09:49:17;;;;;;;6.20;1.20;;;;;;;24.94;27.26;102311.22;6253424;22;20458;-82
2023/06/03 09:52:09;;;;;;;3.45;1.50;;;;;;;24.92;28.78;102312.97;6253570;22;20009;-82
2023/06/03 09:54:39;;;;;;;4.80;1.30;;;;;;;24.99;28.28;102314.44;6253180;22;20016;-82
2023/06/03 09:57:10;;;;;;;1.77;1.15;;;;;;;25.10;27.69;102317.13;6253354;22;20493;-82
2023/06/03 09:59:48;;;;;;;4.80;1.38;;;;;;;25.22;26.29;102315.78;6257061;22;20044;-82
2023/06/03 10:02:20;;;;;;;3.97;1.63;;;;;;;25.35;26.95;102305.06;6252032;22;20024;-82
2023/06/03 10:04:47;;;;;;;2.75;1.40;;;;;;;25.43;26.34;102297.84;6253914;22;20028;-82
2023/06/03 10:07:20;;;;;;;3.40;1.33;;;;;;;25.35;25.64;102299.63;6252197;22;20016;-83
2023/06/03 10:09:47;;;;;;;2.50;1.20;;;;;;;25.40;26.68;102300.81;6254332;22;20087;-85
2023/06/03 10:12:27;;;;;;;1.80;1.30;;;;;;;25.49;26.18;102304.00;6226392;22;20012;-81
2023/06/03 10:14:55;;;;;;;2.33;1.48;;;;;;;25.40;25.88;102298.09;6253448;22;20092;-81
2023/06/03 10:17:25;;;;;;;1.50;1.30;;;;;;;25.42;25.36;102306.50;6251325;22;20096;-80
2023/06/03 10:19:51;;;;;;;2.47;1.50;;;;;;;25.48;25.21;102297.06;6252958;22;20016;-78
2023/06/03 10:22:19;;;;;;;2.85;1.27;;;;;;;25.38;24.86;102293.16;6252323;22;20020;-77
2023/06/03 10:24:48;;;;;;;7.10;1.30;;;;;;;25.65;25.30;102298.91;6252203;22;20045;-77
2023/06/03 10:27:17;;;;;;;2.65;1.40;;;;;;;25.54;24.82;102294.28;6252571;22;20047;-79
2023/06/03 10:29:44;;;;;;;5.03;1.50;;;;;;;25.65;24.40;102305.13;6250836;22;20048;-79
2023/06/03 10:32:17;;;;;;;3.70;1.30;;;;;;;25.64;23.80;102295.47;6252623;22;20091;-78
2023/06/03 10:34:44;;;;;;;1.88;1.30;;;;;;;25.51;23.31;102296.03;6252796;22;20732;-80
2023/06/03 10:37:13;;;;;;;1.85;1.30;;;;;;;25.43;23.66;102295.09;6250301;22;20021;-79
2023/06/03 10:39:42;;;;;;;1.05;1.05;;;;;;;25.48;23.46;102286.16;6252264;22;20398;-80
2023/06/03 10:42:11;;;;;;;4.22;1.00;;;;;;;25.36;23.32;102284.00;6250541;22;20023;-79
2023/06/03 10:44:39;;;;;;;1.60;1.38;;;;;;;25.66;23.81;102284.03;6249358;22;20096;-78
2023/06/03 10:47:16;;;;;;;2.10;1.13;;;;;;;26.04;23.45;102282.19;6250498;22;20021;-78
2023/06/03 10:49:48;;;;;;;4.25;1.13;;;;;;;25.81;23.26;102292.59;6250729;22;20027;-79
2023/06/03 10:52:57;;;;;;;1.08;0.98;;;;;;;25.97;23.34;102299.91;6249537;22;20047;-79
2023/06/03 10:55:42;;;;;;;1.83;1.20;;;;;;;26.10;22.66;102282.88;6248119;22;20017;-78
2023/06/03 10:58:30;;;;;;;0.82;0.70;;;;;;;26.43;23.45;102287.25;6248873;22;20025;-79
2023/06/03 11:01:01;;;;;;;2.38;1.10;;;;;;;26.27;22.41;102288.91;6250857;22;20021;-77
2023/06/03 11:03:32;;;;;;;1.30;0.90;;;;;;;25.97;21.32;102274.59;6250617;22;20017;-77
2023/06/03 11:06:26;;;;;;;3.22;1.00;;;;;;;26.15;22.74;102288.28;6251194;22;20481;-80
2023/06/03 11:09:08;;;;;;;2.42;0.90;;;;;;;26.25;21.52;102278.50;6250876;22;20043;-79
2023/06/03 11:11:40;;;;;;;1.98;0.88;;;;;;;26.32;21.90;102282.69;6251037;22;20016;-80
2023/06/03 11:14:25;;;;;;;8.68;7.82;;;;;;;26.42;21.98;102289.25;6250502;22;20012;-82
2023/06/03 11:16:58;;;;;;;1.35;1.25;;;;;;;26.19;21.67;102285.28;6248831;22;20068;-81
2023/06/03 11:19:33;;;;;;;3.60;1.20;;;;;;;26.30;22.07;102282.44;6250623;22;20056;-82
2023/06/03 11:22:07;;;;;;;1.40;1.30;;;;;;;26.37;22.28;102281.16;6250430;22;20481;-81
2023/06/03 11:24:37;;;;;;;1.05;0.95;;;;;;;26.20;21.65;102284.03;6250952;22;20019;-82
2023/06/03 11:27:09;;;;;;;1.10;1.00;;;;;;;26.03;21.71;102273.28;6250666;22;20017;-82
2023/06/03 11:29:51;;;;;;;0.88;0.88;;;;;;;26.22;22.10;102282.25;6249179;22;20024;-81
2023/06/03 11:32:23;;;;;;;1.10;1.00;;;;;;;26.24;21.22;102276.28;6250167;22;20016;-81
2023/06/03 11:35:04;;;;;;;4.53;0.95;;;;;;;26.14;21.47;102281.34;6250762;22;20041;-82
2023/06/03 11:37:40;;;;;;;1.20;0.85;;;;;;;26.10;21.52;102277.44;6249963;22;20064;-81
2023/06/03 11:40:16;;;;;;;3.85;1.00;;;;;;;26.32;21.48;102276.50;6252667;22;20027;-81
2023/06/03 11:42:49;;;;;;;4.07;1.00;;;;;;;26.20;21.46;102265.66;6251769;22;20490;-81